sensor_id;sensor_type;location;lat;lon;timestamp;temperature;humidity
33269;DHT22;19640;50.944;5.260;2023-05-07T00:00:03;14.80;99.90
33269;DHT22;19640;50.944;5.260;2023-05-07T00:02:32;14.80;99.90
33269;DHT22;19640;50.944;5.260;2023-05-07T00:04:58;14.90;99.90
33269;DHT22;19640;50.944;5.260;2023-05-07T00:07:23;14.80;99.90
33269;DHT22;19640;50.944;5.260;2023-05-07T00:09:49;14.70;99.90
33269;DHT22;19640;50.944;5.260;2023-05-07T00:12:15;14.60;99.90
33269;DHT22;19640;50.944;5.260;2023-05-07T00:14:41;14.20;99.90
33269;DHT22;19640;50.944;5.260;2023-05-07T00:17:07;14.40;99.90
33269;DHT22;19640;50.944;5.260;2023-05-07T00:19:33;14.20;99.90
33269;DHT22;19640;50.944;5.260;2023-05-07T00:21:58;14.00;99.90
33269;DHT22;19640;50.944;5.260;2023-05-07T00:24:24;14.10;99.90
33269;DHT22;19640;50.944;5.260;2023-05-07T00:26:50;14.20;99.90
33269;DHT22;19640;50.944;5.260;2023-05-07T00:29:16;14.20;99.90
33269;DHT22;19640;50.944;5.260;2023-05-07T00:31:41;14.30;99.90
33269;DHT22;19640;50.944;5.260;2023-05-07T00:34:07;14.20;99.90
33269;DHT22;19640;50.944;5.260;2023-05-07T00:36:33;14.10;99.90
33269;DHT22;19640;50.944;5.260;2023-05-07T00:39:02;14.00;99.90
33269;DHT22;19640;50.944;5.260;2023-05-07T00:41:29;13.90;99.90
33269;DHT22;19640;50.944;5.260;2023-05-07T00:43:56;13.90;99.90
33269;DHT22;19640;50.944;5.260;2023-05-07T00:46:22;14.00;99.90
33269;DHT22;19640;50.944;5.260;2023-05-07T00:48:50;14.10;99.90
33269;DHT22;19640;50.944;5.260;2023-05-07T00:51:17;14.30;99.90
33269;DHT22;19640;50.944;5.260;2023-05-07T00:53:43;14.50;99.90
33269;DHT22;19640;50.944;5.260;2023-05-07T00:56:10;14.60;99.90
33269;DHT22;19640;50.944;5.260;2023-05-07T00:58:36;14.60;99.90
33269;DHT22;19640;50.944;5.260;2023-05-07T01:01:02;14.60;99.90
33269;DHT22;19640;50.944;5.260;2023-05-07T01:03:28;14.50;99.90
33269;DHT22;19640;50.944;5.260;2023-05-07T01:05:55;14.50;99.90
33269;DHT22;19640;50.944;5.260;2023-05-07T01:08:23;14.60;99.90
33269;DHT22;19640;50.944;5.260;2023-05-07T01:10:50;14.70;99.90
33269;DHT22;19640;50.944;5.260;2023-05-07T01:13:18;14.80;99.90
33269;DHT22;19640;50.944;5.260;2023-05-07T01:15:45;14.70;99.90
33269;DHT22;19640;50.944;5.260;2023-05-07T01:18:10;14.70;99.90
33269;DHT22;19640;50.944;5.260;2023-05-07T01:20:36;14.80;99.90
33269;DHT22;19640;50.944;5.260;2023-05-07T01:23:03;14.90;99.90
33269;DHT22;19640;50.944;5.260;2023-05-07T01:25:29;15.00;99.90
33269;DHT22;19640;50.944;5.260;2023-05-07T01:27:56;15.00;99.90
33269;DHT22;19640;50.944;5.260;2023-05-07T01:30:22;15.10;99.90
33269;DHT22;19640;50.944;5.260;2023-05-07T01:35:26;15.30;99.90
33269;DHT22;19640;50.944;5.260;2023-05-07T01:37:53;15.20;99.90
33269;DHT22;19640;50.944;5.260;2023-05-07T01:40:20;15.20;99.90
33269;DHT22;19640;50.944;5.260;2023-05-07T01:42:46;15.30;99.90
33269;DHT22;19640;50.944;5.260;2023-05-07T01:45:13;15.30;99.90
33269;DHT22;19640;50.944;5.260;2023-05-07T01:47:39;15.30;99.90
33269;DHT22;19640;50.944;5.260;2023-05-07T01:50:06;15.40;99.90
33269;DHT22;19640;50.944;5.260;2023-05-07T01:52:34;15.20;99.90
33269;DHT22;19640;50.944;5.260;2023-05-07T01:55:00;14.90;99.90
33269;DHT22;19640;50.944;5.260;2023-05-07T01:57:25;14.70;99.90
33269;DHT22;19640;50.944;5.260;2023-05-07T01:59:51;14.60;99.90
33269;DHT22;19640;50.944;5.260;2023-05-07T02:02:17;14.40;99.90
33269;DHT22;19640;50.944;5.260;2023-05-07T02:04:43;14.20;99.90
33269;DHT22;19640;50.944;5.260;2023-05-07T02:07:08;14.10;99.90
33269;DHT22;19640;50.944;5.260;2023-05-07T02:09:34;14.10;99.90
33269;DHT22;19640;50.944;5.260;2023-05-07T02:12:00;14.10;99.90
33269;DHT22;19640;50.944;5.260;2023-05-07T02:14:26;14.10;99.90
33269;DHT22;19640;50.944;5.260;2023-05-07T02:16:52;14.30;99.90
33269;DHT22;19640;50.944;5.260;2023-05-07T02:19:18;14.40;99.90
33269;DHT22;19640;50.944;5.260;2023-05-07T02:21:46;14.50;99.90
33269;DHT22;19640;50.944;5.260;2023-05-07T02:24:13;14.70;99.90
33269;DHT22;19640;50.944;5.260;2023-05-07T02:26:40;14.50;99.90
33269;DHT22;19640;50.944;5.260;2023-05-07T02:29:05;14.30;99.90
33269;DHT22;19640;50.944;5.260;2023-05-07T02:31:31;14.20;99.90
33269;DHT22;19640;50.944;5.260;2023-05-07T02:33:59;14.10;99.90
33269;DHT22;19640;50.944;5.260;2023-05-07T02:36:26;14.20;99.90
33269;DHT22;19640;50.944;5.260;2023-05-07T02:38:52;14.20;99.90
33269;DHT22;19640;50.944;5.260;2023-05-07T02:41:18;14.40;99.90
33269;DHT22;19640;50.944;5.260;2023-05-07T02:43:43;14.60;99.90
33269;DHT22;19640;50.944;5.260;2023-05-07T02:46:09;14.70;99.90
33269;DHT22;19640;50.944;5.260;2023-05-07T02:48:35;14.80;99.90
33269;DHT22;19640;50.944;5.260;2023-05-07T02:51:02;14.80;99.90
33269;DHT22;19640;50.944;5.260;2023-05-07T02:53:28;14.90;99.90
33269;DHT22;19640;50.944;5.260;2023-05-07T02:55:59;15.00;99.90
33269;DHT22;19640;50.944;5.260;2023-05-07T02:58:25;14.70;99.90
33269;DHT22;19640;50.944;5.260;2023-05-07T03:00:51;14.60;99.90
33269;DHT22;19640;50.944;5.260;2023-05-07T03:03:17;14.30;99.90
33269;DHT22;19640;50.944;5.260;2023-05-07T03:05:43;14.40;99.90
33269;DHT22;19640;50.944;5.260;2023-05-07T03:08:09;14.30;99.90
33269;DHT22;19640;50.944;5.260;2023-05-07T03:10:36;14.40;99.90
33269;DHT22;19640;50.944;5.260;2023-05-07T03:13:02;14.60;99.90
33269;DHT22;19640;50.944;5.260;2023-05-07T03:15:28;14.60;99.90
33269;DHT22;19640;50.944;5.260;2023-05-07T03:17:54;14.70;99.90
33269;DHT22;19640;50.944;5.260;2023-05-07T03:20:20;14.70;99.90
33269;DHT22;19640;50.944;5.260;2023-05-07T03:22:45;14.80;99.90
33269;DHT22;19640;50.944;5.260;2023-05-07T03:25:12;14.60;99.90
33269;DHT22;19640;50.944;5.260;2023-05-07T03:27:41;14.70;99.90
33269;DHT22;19640;50.944;5.260;2023-05-07T03:30:10;14.50;99.90
33269;DHT22;19640;50.944;5.260;2023-05-07T03:32:36;14.30;99.90
33269;DHT22;19640;50.944;5.260;2023-05-07T03:35:03;14.10;99.90
33269;DHT22;19640;50.944;5.260;2023-05-07T03:37:29;14.10;99.90
33269;DHT22;19640;50.944;5.260;2023-05-07T03:39:55;14.30;99.90
33269;DHT22;19640;50.944;5.260;2023-05-07T03:42:20;14.50;99.90
33269;DHT22;19640;50.944;5.260;2023-05-07T03:44:46;14.60;99.90
33269;DHT22;19640;50.944;5.260;2023-05-07T03:47:12;14.50;99.90
33269;DHT22;19640;50.944;5.260;2023-05-07T03:49:39;14.40;99.90
33269;DHT22;19640;50.944;5.260;2023-05-07T03:52:05;14.60;99.90
33269;DHT22;19640;50.944;5.260;2023-05-07T03:54:31;14.70;99.90
33269;DHT22;19640;50.944;5.260;2023-05-07T03:56:56;14.90;99.90
33269;DHT22;19640;50.944;5.260;2023-05-07T03:59:22;15.00;99.90
33269;DHT22;19640;50.944;5.260;2023-05-07T04:01:48;15.10;99.90
33269;DHT22;19640;50.944;5.260;2023-05-07T04:04:14;15.00;99.90
33269;DHT22;19640;50.944;5.260;2023-05-07T04:06:40;14.90;99.90
33269;DHT22;19640;50.944;5.260;2023-05-07T04:09:06;15.00;99.90
33269;DHT22;19640;50.944;5.260;2023-05-07T04:11:32;15.10;99.90
33269;DHT22;19640;50.944;5.260;2023-05-07T04:13:58;15.10;99.90
33269;DHT22;19640;50.944;5.260;2023-05-07T04:16:23;15.20;99.90
33269;DHT22;19640;50.944;5.260;2023-05-07T04:18:49;15.40;99.90
33269;DHT22;19640;50.944;5.260;2023-05-07T04:21:16;15.40;99.90
33269;DHT22;19640;50.944;5.260;2023-05-07T04:23:42;15.20;99.90
33269;DHT22;19640;50.944;5.260;2023-05-07T04:26:08;15.10;99.90
33269;DHT22;19640;50.944;5.260;2023-05-07T04:28:34;15.10;99.90
33269;DHT22;19640;50.944;5.260;2023-05-07T04:31:00;15.10;99.90
33269;DHT22;19640;50.944;5.260;2023-05-07T04:33:26;15.00;99.90
33269;DHT22;19640;50.944;5.260;2023-05-07T04:35:51;15.00;99.90
33269;DHT22;19640;50.944;5.260;2023-05-07T04:38:17;14.90;99.90
33269;DHT22;19640;50.944;5.260;2023-05-07T04:40:44;14.60;99.90
33269;DHT22;19640;50.944;5.260;2023-05-07T04:43:10;14.40;99.90
33269;DHT22;19640;50.944;5.260;2023-05-07T04:45:36;14.30;99.90
33269;DHT22;19640;50.944;5.260;2023-05-07T04:48:02;14.40;99.90
33269;DHT22;19640;50.944;5.260;2023-05-07T04:50:28;14.70;99.90
33269;DHT22;19640;50.944;5.260;2023-05-07T04:52:53;14.80;99.90
33269;DHT22;19640;50.944;5.260;2023-05-07T04:55:19;14.90;99.90
33269;DHT22;19640;50.944;5.260;2023-05-07T04:57:45;14.90;99.90
33269;DHT22;19640;50.944;5.260;2023-05-07T05:00:11;15.10;99.90
33269;DHT22;19640;50.944;5.260;2023-05-07T05:02:40;15.00;99.90
33269;DHT22;19640;50.944;5.260;2023-05-07T05:05:06;15.00;99.90
33269;DHT22;19640;50.944;5.260;2023-05-07T05:07:32;15.10;99.90
33269;DHT22;19640;50.944;5.260;2023-05-07T05:09:58;15.20;99.90
33269;DHT22;19640;50.944;5.260;2023-05-07T05:12:24;15.10;99.90
33269;DHT22;19640;50.944;5.260;2023-05-07T05:14:50;15.00;99.90
33269;DHT22;19640;50.944;5.260;2023-05-07T05:17:16;15.10;99.90
33269;DHT22;19640;50.944;5.260;2023-05-07T05:19:41;15.20;99.90
33269;DHT22;19640;50.944;5.260;2023-05-07T05:22:07;15.50;99.90
33269;DHT22;19640;50.944;5.260;2023-05-07T05:24:33;15.60;99.90
33269;DHT22;19640;50.944;5.260;2023-05-07T05:26:58;15.60;99.90
33269;DHT22;19640;50.944;5.260;2023-05-07T05:29:26;15.50;99.90
33269;DHT22;19640;50.944;5.260;2023-05-07T05:31:52;15.60;99.90
33269;DHT22;19640;50.944;5.260;2023-05-07T05:34:18;15.20;99.90
33269;DHT22;19640;50.944;5.260;2023-05-07T05:36:45;15.20;99.90
33269;DHT22;19640;50.944;5.260;2023-05-07T05:39:11;15.20;99.90
33269;DHT22;19640;50.944;5.260;2023-05-07T05:41:37;15.20;99.90
33269;DHT22;19640;50.944;5.260;2023-05-07T05:44:02;15.20;99.90
33269;DHT22;19640;50.944;5.260;2023-05-07T05:46:28;15.50;99.90
33269;DHT22;19640;50.944;5.260;2023-05-07T05:48:53;15.70;99.90
33269;DHT22;19640;50.944;5.260;2023-05-07T05:51:20;16.00;99.90
33269;DHT22;19640;50.944;5.260;2023-05-07T05:53:46;15.90;99.90
33269;DHT22;19640;50.944;5.260;2023-05-07T05:56:12;15.90;99.90
33269;DHT22;19640;50.944;5.260;2023-05-07T05:58:38;16.00;99.90
33269;DHT22;19640;50.944;5.260;2023-05-07T06:01:03;16.10;99.90
33269;DHT22;19640;50.944;5.260;2023-05-07T06:03:30;16.50;99.90
33269;DHT22;19640;50.944;5.260;2023-05-07T06:05:57;16.80;99.90
33269;DHT22;19640;50.944;5.260;2023-05-07T06:08:23;16.80;99.90
33269;DHT22;19640;50.944;5.260;2023-05-07T06:10:49;17.00;99.90
33269;DHT22;19640;50.944;5.260;2023-05-07T06:13:15;17.20;99.90
33269;DHT22;19640;50.944;5.260;2023-05-07T06:15:41;17.40;99.90
33269;DHT22;19640;50.944;5.260;2023-05-07T06:18:06;17.60;99.90
33269;DHT22;19640;50.944;5.260;2023-05-07T06:20:32;17.60;99.90
33269;DHT22;19640;50.944;5.260;2023-05-07T06:22:58;17.30;99.90
33269;DHT22;19640;50.944;5.260;2023-05-07T06:25:24;17.00;99.90
33269;DHT22;19640;50.944;5.260;2023-05-07T06:27:49;17.20;99.90
33269;DHT22;19640;50.944;5.260;2023-05-07T06:30:15;17.30;99.90
33269;DHT22;19640;50.944;5.260;2023-05-07T06:32:41;17.50;99.90
33269;DHT22;19640;50.944;5.260;2023-05-07T06:35:07;17.70;99.90
33269;DHT22;19640;50.944;5.260;2023-05-07T06:37:33;17.90;99.90
33269;DHT22;19640;50.944;5.260;2023-05-07T06:39:58;17.90;99.90
33269;DHT22;19640;50.944;5.260;2023-05-07T06:42:24;17.70;99.90
33269;DHT22;19640;50.944;5.260;2023-05-07T06:44:50;17.60;99.90
33269;DHT22;19640;50.944;5.260;2023-05-07T06:47:15;17.80;99.90
33269;DHT22;19640;50.944;5.260;2023-05-07T06:49:41;18.00;99.90
33269;DHT22;19640;50.944;5.260;2023-05-07T06:52:07;18.00;99.90
33269;DHT22;19640;50.944;5.260;2023-05-07T06:54:32;17.70;99.90
33269;DHT22;19640;50.944;5.260;2023-05-07T06:56:58;17.90;99.90
33269;DHT22;19640;50.944;5.260;2023-05-07T06:59:24;17.80;99.90
33269;DHT22;19640;50.944;5.260;2023-05-07T07:01:50;17.90;99.90
33269;DHT22;19640;50.944;5.260;2023-05-07T07:04:15;17.50;99.90
33269;DHT22;19640;50.944;5.260;2023-05-07T07:06:41;17.30;99.90
33269;DHT22;19640;50.944;5.260;2023-05-07T07:09:07;17.60;99.90
33269;DHT22;19640;50.944;5.260;2023-05-07T07:11:32;17.80;99.90
33269;DHT22;19640;50.944;5.260;2023-05-07T07:13:58;17.90;99.90
33269;DHT22;19640;50.944;5.260;2023-05-07T07:16:24;17.80;99.90
33269;DHT22;19640;50.944;5.260;2023-05-07T07:18:50;17.80;99.90
33269;DHT22;19640;50.944;5.260;2023-05-07T07:21:16;17.40;99.90
33269;DHT22;19640;50.944;5.260;2023-05-07T07:23:42;17.30;99.90
33269;DHT22;19640;50.944;5.260;2023-05-07T07:26:08;17.40;99.90
33269;DHT22;19640;50.944;5.260;2023-05-07T07:28:34;17.60;99.90
33269;DHT22;19640;50.944;5.260;2023-05-07T07:30:59;17.70;99.90
33269;DHT22;19640;50.944;5.260;2023-05-07T07:33:25;17.90;99.90
33269;DHT22;19640;50.944;5.260;2023-05-07T07:35:51;18.40;99.90
33269;DHT22;19640;50.944;5.260;2023-05-07T07:38:16;18.60;99.90
33269;DHT22;19640;50.944;5.260;2023-05-07T07:40:42;18.60;99.90
33269;DHT22;19640;50.944;5.260;2023-05-07T07:43:09;18.80;99.90
33269;DHT22;19640;50.944;5.260;2023-05-07T07:45:35;18.60;99.90
33269;DHT22;19640;50.944;5.260;2023-05-07T07:48:00;18.70;99.90
33269;DHT22;19640;50.944;5.260;2023-05-07T07:50:26;19.00;99.90
33269;DHT22;19640;50.944;5.260;2023-05-07T07:52:52;19.30;99.90
33269;DHT22;19640;50.944;5.260;2023-05-07T07:55:20;19.70;99.90
33269;DHT22;19640;50.944;5.260;2023-05-07T07:57:51;19.90;99.90
33269;DHT22;19640;50.944;5.260;2023-05-07T08:00:17;20.10;99.90
33269;DHT22;19640;50.944;5.260;2023-05-07T08:02:42;20.30;99.90
33269;DHT22;19640;50.944;5.260;2023-05-07T08:05:08;20.30;99.90
33269;DHT22;19640;50.944;5.260;2023-05-07T08:07:34;20.40;99.90
33269;DHT22;19640;50.944;5.260;2023-05-07T08:10:00;20.10;99.90
33269;DHT22;19640;50.944;5.260;2023-05-07T08:12:26;20.10;99.90
33269;DHT22;19640;50.944;5.260;2023-05-07T08:14:52;19.80;99.90
33269;DHT22;19640;50.944;5.260;2023-05-07T08:17:17;20.10;99.90
33269;DHT22;19640;50.944;5.260;2023-05-07T08:19:45;20.30;99.90
33269;DHT22;19640;50.944;5.260;2023-05-07T08:22:10;20.00;99.90
33269;DHT22;19640;50.944;5.260;2023-05-07T08:24:36;20.10;99.90
33269;DHT22;19640;50.944;5.260;2023-05-07T08:27:02;20.40;99.90
33269;DHT22;19640;50.944;5.260;2023-05-07T08:29:28;20.10;99.90
33269;DHT22;19640;50.944;5.260;2023-05-07T08:31:54;20.00;99.90
33269;DHT22;19640;50.944;5.260;2023-05-07T08:34:21;19.90;99.90
33269;DHT22;19640;50.944;5.260;2023-05-07T08:36:47;20.10;99.90
33269;DHT22;19640;50.944;5.260;2023-05-07T08:39:15;20.20;99.90
33269;DHT22;19640;50.944;5.260;2023-05-07T08:41:44;20.30;99.90
33269;DHT22;19640;50.944;5.260;2023-05-07T08:44:14;20.50;99.90
33269;DHT22;19640;50.944;5.260;2023-05-07T08:46:41;20.50;99.90
33269;DHT22;19640;50.944;5.260;2023-05-07T08:49:09;20.80;99.90
33269;DHT22;19640;50.944;5.260;2023-05-07T08:51:36;21.00;99.90
33269;DHT22;19640;50.944;5.260;2023-05-07T08:54:02;20.80;99.90
33269;DHT22;19640;50.944;5.260;2023-05-07T08:56:27;21.10;99.90
33269;DHT22;19640;50.944;5.260;2023-05-07T08:58:53;21.30;99.90
33269;DHT22;19640;50.944;5.260;2023-05-07T09:01:24;21.20;99.90
33269;DHT22;19640;50.944;5.260;2023-05-07T09:03:51;21.30;99.90
33269;DHT22;19640;50.944;5.260;2023-05-07T09:06:18;21.70;99.90
33269;DHT22;19640;50.944;5.260;2023-05-07T09:08:52;21.60;99.90
33269;DHT22;19640;50.944;5.260;2023-05-07T09:11:22;21.50;99.90
33269;DHT22;19640;50.944;5.260;2023-05-07T09:13:49;21.50;99.90
33269;DHT22;19640;50.944;5.260;2023-05-07T09:16:20;21.60;99.90
33269;DHT22;19640;50.944;5.260;2023-05-07T09:18:47;21.70;99.90
33269;DHT22;19640;50.944;5.260;2023-05-07T09:21:17;21.80;99.90
33269;DHT22;19640;50.944;5.260;2023-05-07T09:23:43;21.40;99.90
33269;DHT22;19640;50.944;5.260;2023-05-07T09:26:09;21.60;99.90
33269;DHT22;19640;50.944;5.260;2023-05-07T09:28:40;21.60;99.90
33269;DHT22;19640;50.944;5.260;2023-05-07T09:31:07;21.70;99.90
33269;DHT22;19640;50.944;5.260;2023-05-07T09:33:34;21.70;99.90
33269;DHT22;19640;50.944;5.260;2023-05-07T09:36:04;21.90;99.90
33269;DHT22;19640;50.944;5.260;2023-05-07T09:38:31;21.70;99.90
33269;DHT22;19640;50.944;5.260;2023-05-07T09:41:14;21.50;99.90
33269;DHT22;19640;50.944;5.260;2023-05-07T09:43:40;21.60;99.90
33269;DHT22;19640;50.944;5.260;2023-05-07T09:46:13;21.70;99.90
33269;DHT22;19640;50.944;5.260;2023-05-07T09:48:43;21.90;99.90
33269;DHT22;19640;50.944;5.260;2023-05-07T09:53:38;21.40;99.90
33269;DHT22;19640;50.944;5.260;2023-05-07T09:56:04;21.50;99.90
33269;DHT22;19640;50.944;5.260;2023-05-07T09:58:32;21.80;99.90
33269;DHT22;19640;50.944;5.260;2023-05-07T10:00:59;21.60;99.90
33269;DHT22;19640;50.944;5.260;2023-05-07T10:03:29;20.90;99.90
33269;DHT22;19640;50.944;5.260;2023-05-07T10:05:58;20.70;99.90
33269;DHT22;19640;50.944;5.260;2023-05-07T10:08:24;20.40;99.90
33269;DHT22;19640;50.944;5.260;2023-05-07T10:10:51;20.30;99.90
33269;DHT22;19640;50.944;5.260;2023-05-07T10:13:19;20.50;99.90
33269;DHT22;19640;50.944;5.260;2023-05-07T10:15:45;21.00;99.90
33269;DHT22;19640;50.944;5.260;2023-05-07T10:18:12;20.80;99.90
33269;DHT22;19640;50.944;5.260;2023-05-07T10:20:39;21.00;99.90
33269;DHT22;19640;50.944;5.260;2023-05-07T10:23:08;20.90;99.90
33269;DHT22;19640;50.944;5.260;2023-05-07T10:25:35;20.90;99.90
33269;DHT22;19640;50.944;5.260;2023-05-07T10:28:06;20.90;99.90
33269;DHT22;19640;50.944;5.260;2023-05-07T10:33:31;20.60;99.90
33269;DHT22;19640;50.944;5.260;2023-05-07T10:35:59;20.70;99.90
33269;DHT22;19640;50.944;5.260;2023-05-07T10:38:27;20.40;99.90
33269;DHT22;19640;50.944;5.260;2023-05-07T10:40:53;20.30;99.90
33269;DHT22;19640;50.944;5.260;2023-05-07T10:43:19;20.20;99.90
33269;DHT22;19640;50.944;5.260;2023-05-07T10:46:09;20.20;99.90
33269;DHT22;19640;50.944;5.260;2023-05-07T10:51:27;20.00;99.90
33269;DHT22;19640;50.944;5.260;2023-05-07T10:56:41;20.20;99.90
33269;DHT22;19640;50.944;5.260;2023-05-07T11:04:17;19.90;99.90
33269;DHT22;19640;50.944;5.260;2023-05-07T11:09:58;19.60;99.90
33269;DHT22;19640;50.944;5.260;2023-05-07T11:15:11;19.40;99.90
33269;DHT22;19640;50.944;5.260;2023-05-07T11:17:54;19.50;99.90
33269;DHT22;19640;50.944;5.260;2023-05-07T11:20:20;19.50;99.90
33269;DHT22;19640;50.944;5.260;2023-05-07T11:22:46;19.40;99.90
33269;DHT22;19640;50.944;5.260;2023-05-07T11:25:18;19.30;99.90
33269;DHT22;19640;50.944;5.260;2023-05-07T11:27:47;19.10;99.90
33269;DHT22;19640;50.944;5.260;2023-05-07T11:30:19;19.20;99.90
33269;DHT22;19640;50.944;5.260;2023-05-07T11:32:47;19.10;99.90
33269;DHT22;19640;50.944;5.260;2023-05-07T11:35:15;19.20;99.90
33269;DHT22;19640;50.944;5.260;2023-05-07T11:37:41;19.30;99.90
33269;DHT22;19640;50.944;5.260;2023-05-07T11:40:08;19.40;99.90
33269;DHT22;19640;50.944;5.260;2023-05-07T11:42:37;19.30;99.90
33269;DHT22;19640;50.944;5.260;2023-05-07T11:45:03;19.30;99.90
33269;DHT22;19640;50.944;5.260;2023-05-07T11:47:33;19.20;99.90
33269;DHT22;19640;50.944;5.260;2023-05-07T11:50:08;19.20;99.90
33269;DHT22;19640;50.944;5.260;2023-05-07T11:52:35;19.10;99.90
33269;DHT22;19640;50.944;5.260;2023-05-07T11:55:02;19.20;99.90
33269;DHT22;19640;50.944;5.260;2023-05-07T11:57:29;19.30;99.90
33269;DHT22;19640;50.944;5.260;2023-05-07T11:59:59;19.30;99.90
33269;DHT22;19640;50.944;5.260;2023-05-07T12:02:25;19.00;99.90
33269;DHT22;19640;50.944;5.260;2023-05-07T12:04:52;19.20;99.90
33269;DHT22;19640;50.944;5.260;2023-05-07T12:07:18;19.50;99.90
33269;DHT22;19640;50.944;5.260;2023-05-07T12:09:45;19.50;99.90
33269;DHT22;19640;50.944;5.260;2023-05-07T12:12:11;19.70;99.90
33269;DHT22;19640;50.944;5.260;2023-05-07T12:14:40;19.70;99.90
33269;DHT22;19640;50.944;5.260;2023-05-07T12:17:10;19.40;99.90
33269;DHT22;19640;50.944;5.260;2023-05-07T12:19:37;19.40;99.90
33269;DHT22;19640;50.944;5.260;2023-05-07T12:22:04;19.40;99.90
33269;DHT22;19640;50.944;5.260;2023-05-07T12:24:46;19.10;99.90
33269;DHT22;19640;50.944;5.260;2023-05-07T12:27:13;19.30;99.90
33269;DHT22;19640;50.944;5.260;2023-05-07T12:29:39;19.30;99.90
33269;DHT22;19640;50.944;5.260;2023-05-07T12:32:06;19.40;99.90
33269;DHT22;19640;50.944;5.260;2023-05-07T12:34:32;19.30;99.90
33269;DHT22;19640;50.944;5.260;2023-05-07T12:37:01;19.30;99.90
33269;DHT22;19640;50.944;5.260;2023-05-07T12:39:27;19.40;99.90
33269;DHT22;19640;50.944;5.260;2023-05-07T12:41:58;19.60;99.90
33269;DHT22;19640;50.944;5.260;2023-05-07T12:44:33;19.60;99.90
33269;DHT22;19640;50.944;5.260;2023-05-07T12:47:02;19.60;99.90
33269;DHT22;19640;50.944;5.260;2023-05-07T12:49:28;19.80;99.90
33269;DHT22;19640;50.944;5.260;2023-05-07T12:51:54;19.90;99.90
33269;DHT22;19640;50.944;5.260;2023-05-07T12:54:33;19.90;99.90
33269;DHT22;19640;50.944;5.260;2023-05-07T12:57:07;20.00;99.90
33269;DHT22;19640;50.944;5.260;2023-05-07T12:59:41;19.90;99.90
33269;DHT22;19640;50.944;5.260;2023-05-07T13:02:07;20.00;99.90
33269;DHT22;19640;50.944;5.260;2023-05-07T13:04:34;20.00;99.90
33269;DHT22;19640;50.944;5.260;2023-05-07T13:07:00;20.10;99.90
33269;DHT22;19640;50.944;5.260;2023-05-07T13:09:26;20.20;99.90
33269;DHT22;19640;50.944;5.260;2023-05-07T13:11:53;20.20;99.90
33269;DHT22;19640;50.944;5.260;2023-05-07T13:14:19;19.90;99.90
33269;DHT22;19640;50.944;5.260;2023-05-07T13:16:46;20.20;99.90
33269;DHT22;19640;50.944;5.260;2023-05-07T13:19:12;20.40;99.90
33269;DHT22;19640;50.944;5.260;2023-05-07T13:21:38;20.30;99.90
33269;DHT22;19640;50.944;5.260;2023-05-07T13:24:04;20.50;99.90
33269;DHT22;19640;50.944;5.260;2023-05-07T13:26:31;20.30;99.90
33269;DHT22;19640;50.944;5.260;2023-05-07T13:28:57;20.20;99.90
33269;DHT22;19640;50.944;5.260;2023-05-07T13:31:23;20.00;99.90
33269;DHT22;19640;50.944;5.260;2023-05-07T13:33:48;20.00;99.90
33269;DHT22;19640;50.944;5.260;2023-05-07T13:36:14;20.20;99.90
33269;DHT22;19640;50.944;5.260;2023-05-07T13:38:40;20.40;99.90
33269;DHT22;19640;50.944;5.260;2023-05-07T13:41:06;20.40;99.90
33269;DHT22;19640;50.944;5.260;2023-05-07T13:43:32;20.50;99.90
33269;DHT22;19640;50.944;5.260;2023-05-07T13:45:59;20.50;99.90
33269;DHT22;19640;50.944;5.260;2023-05-07T13:48:25;20.50;99.90
33269;DHT22;19640;50.944;5.260;2023-05-07T13:50:50;20.50;99.90
33269;DHT22;19640;50.944;5.260;2023-05-07T13:53:17;20.40;99.90
33269;DHT22;19640;50.944;5.260;2023-05-07T13:55:44;20.50;99.90
33269;DHT22;19640;50.944;5.260;2023-05-07T13:58:10;20.50;99.90
33269;DHT22;19640;50.944;5.260;2023-05-07T14:00:37;20.50;99.90
33269;DHT22;19640;50.944;5.260;2023-05-07T14:03:04;20.40;99.90
33269;DHT22;19640;50.944;5.260;2023-05-07T14:05:30;20.50;99.90
33269;DHT22;19640;50.944;5.260;2023-05-07T14:07:59;20.40;99.90
33269;DHT22;19640;50.944;5.260;2023-05-07T14:10:25;20.30;99.90
33269;DHT22;19640;50.944;5.260;2023-05-07T14:12:51;20.00;99.90
33269;DHT22;19640;50.944;5.260;2023-05-07T14:15:18;20.00;99.90
33269;DHT22;19640;50.944;5.260;2023-05-07T14:17:44;19.80;99.90
33269;DHT22;19640;50.944;5.260;2023-05-07T14:20:10;19.60;99.90
33269;DHT22;19640;50.944;5.260;2023-05-07T14:22:36;19.60;99.90
33269;DHT22;19640;50.944;5.260;2023-05-07T14:25:02;19.60;99.90
33269;DHT22;19640;50.944;5.260;2023-05-07T14:27:28;19.60;99.90
33269;DHT22;19640;50.944;5.260;2023-05-07T14:29:54;19.70;99.90
33269;DHT22;19640;50.944;5.260;2023-05-07T14:32:20;19.80;99.90
33269;DHT22;19640;50.944;5.260;2023-05-07T14:34:46;19.90;99.90
33269;DHT22;19640;50.944;5.260;2023-05-07T14:37:12;20.00;99.90
33269;DHT22;19640;50.944;5.260;2023-05-07T14:39:38;20.00;99.90
33269;DHT22;19640;50.944;5.260;2023-05-07T14:42:04;20.10;99.90
33269;DHT22;19640;50.944;5.260;2023-05-07T14:44:29;20.20;99.90
33269;DHT22;19640;50.944;5.260;2023-05-07T14:46:56;19.90;99.90
33269;DHT22;19640;50.944;5.260;2023-05-07T14:49:22;20.00;99.90
33269;DHT22;19640;50.944;5.260;2023-05-07T14:51:49;20.10;99.90
33269;DHT22;19640;50.944;5.260;2023-05-07T14:54:15;20.10;99.90
33269;DHT22;19640;50.944;5.260;2023-05-07T14:56:41;20.00;99.90
33269;DHT22;19640;50.944;5.260;2023-05-07T14:59:08;20.00;99.90
33269;DHT22;19640;50.944;5.260;2023-05-07T15:01:37;20.20;99.90
33269;DHT22;19640;50.944;5.260;2023-05-07T15:04:03;20.20;99.90
33269;DHT22;19640;50.944;5.260;2023-05-07T15:06:29;20.20;99.90
33269;DHT22;19640;50.944;5.260;2023-05-07T15:08:55;20.00;99.90
33269;DHT22;19640;50.944;5.260;2023-05-07T15:11:21;19.90;99.90
33269;DHT22;19640;50.944;5.260;2023-05-07T15:13:47;19.90;99.90
33269;DHT22;19640;50.944;5.260;2023-05-07T15:16:12;19.80;99.90
33269;DHT22;19640;50.944;5.260;2023-05-07T15:18:38;19.90;99.90
33269;DHT22;19640;50.944;5.260;2023-05-07T15:21:04;20.00;99.90
33269;DHT22;19640;50.944;5.260;2023-05-07T15:23:30;20.00;99.90
33269;DHT22;19640;50.944;5.260;2023-05-07T15:25:56;19.90;99.90
33269;DHT22;19640;50.944;5.260;2023-05-07T15:28:22;19.90;99.90
33269;DHT22;19640;50.944;5.260;2023-05-07T15:30:48;19.90;99.90
33269;DHT22;19640;50.944;5.260;2023-05-07T15:33:13;20.00;99.90
33269;DHT22;19640;50.944;5.260;2023-05-07T15:35:39;20.00;99.90
33269;DHT22;19640;50.944;5.260;2023-05-07T15:38:05;20.10;99.90
33269;DHT22;19640;50.944;5.260;2023-05-07T15:40:31;20.20;99.90
33269;DHT22;19640;50.944;5.260;2023-05-07T15:42:57;20.20;99.90
33269;DHT22;19640;50.944;5.260;2023-05-07T15:45:24;20.10;99.90
33269;DHT22;19640;50.944;5.260;2023-05-07T15:47:49;20.10;99.90
33269;DHT22;19640;50.944;5.260;2023-05-07T15:50:15;20.20;99.90